createdAt,value
2016-10-15T00:01:00.588Z,0
2016-10-15T00:02:10.891Z,0
2016-10-15T00:03:21.227Z,0
2016-10-15T00:04:30.593Z,0
2016-10-15T00:05:40.902Z,0
2016-10-15T00:06:51.194Z,0
2016-10-15T00:08:01.189Z,0
2016-10-15T00:09:11.550Z,0
2016-10-15T00:10:21.843Z,0
2016-10-15T00:11:32.161Z,0
2016-10-15T00:12:42.145Z,0
2016-10-15T00:13:52.452Z,0
2016-10-15T00:15:02.151Z,0
2016-10-15T00:16:12.458Z,0
2016-10-15T00:17:22.467Z,0
2016-10-15T00:18:32.444Z,0
2016-10-15T00:19:42.136Z,0
2016-10-15T00:20:52.456Z,0
2016-10-15T00:22:02.461Z,0
2016-10-15T00:23:12.751Z,0
2016-10-15T00:24:23.039Z,0
2016-10-15T00:25:33.329Z,0
2016-10-15T00:26:43.015Z,0
2016-10-15T00:27:52.992Z,0
2016-10-15T00:29:03.294Z,0
2016-10-15T00:30:13.569Z,0
2016-10-15T00:31:23.596Z,0
2016-10-15T00:32:33.878Z,0
2016-10-15T00:33:43.260Z,0
2016-10-15T00:34:52.933Z,0
2016-10-15T00:36:03.224Z,0
2016-10-15T00:37:13.201Z,0
2016-10-15T00:38:23.175Z,0
2016-10-15T00:39:33.464Z,0
2016-10-15T00:40:43.140Z,0
2016-10-15T00:41:53.426Z,0
2016-10-15T00:43:03.403Z,0
2016-10-15T00:44:12.761Z,0
2016-10-15T00:45:23.055Z,0
2016-10-15T00:46:32.742Z,0
2016-10-15T00:47:43.035Z,0
2016-10-15T00:48:52.700Z,0
2016-10-15T00:50:02.368Z,0
2016-10-15T00:51:12.658Z,0
2016-10-15T00:52:22.630Z,0
2016-10-15T00:53:32.622Z,0
2016-10-15T00:54:42.915Z,0
2016-10-15T00:55:53.216Z,0
2016-10-15T00:57:03.503Z,0
2016-10-15T00:58:13.491Z,0
2016-10-15T00:59:23.770Z,0
2016-10-15T01:00:34.052Z,0
2016-10-15T01:01:44.027Z,0
2016-10-15T01:02:54.310Z,0
2016-10-15T01:04:04.609Z,0
2016-10-15T01:05:14.598Z,0
2016-10-15T01:06:24.589Z,0
2016-10-15T01:07:34.575Z,0
2016-10-15T01:08:44.877Z,0
2016-10-15T01:09:54.573Z,0
2016-10-15T01:11:04.867Z,0
2016-10-15T01:12:15.196Z,0
2016-10-15T01:13:25.177Z,0
2016-10-15T01:14:35.159Z,0
2016-10-15T01:15:44.820Z,0
2016-10-15T01:16:54.511Z,0
2016-10-15T01:18:04.795Z,0
2016-10-15T01:19:15.095Z,0
2016-10-15T01:20:25.076Z,0
2016-10-15T01:21:35.350Z,0
2016-10-15T01:22:45.335Z,0
2016-10-15T01:23:55.617Z,0
2016-10-15T01:25:05.909Z,0
2016-10-15T01:26:16.191Z,0
2016-10-15T01:27:26.487Z,0
2016-10-15T01:28:36.496Z,0
2016-10-15T01:29:46.480Z,0
2016-10-15T01:30:56.774Z,0
2016-10-15T01:32:07.061Z,0
2016-10-15T01:33:17.373Z,0
2016-10-15T01:34:27.345Z,0
2016-10-15T01:35:37.621Z,0
2016-10-15T01:36:47.283Z,0
2016-10-15T01:37:57.591Z,0
2016-10-15T01:39:07.861Z,0
2016-10-15T01:40:17.533Z,0
2016-10-15T01:41:27.524Z,0
2016-10-15T01:42:37.517Z,0
2016-10-15T01:43:47.807Z,0
2016-10-15T01:44:57.479Z,0
2016-10-15T01:46:07.765Z,0
2016-10-15T01:47:17.753Z,0
2016-10-15T01:48:27.409Z,0
2016-10-15T01:49:37.385Z,0
2016-10-15T01:50:47.668Z,0
2016-10-15T01:51:57.950Z,0
2016-10-15T01:53:08.255Z,0
2016-10-15T01:54:18.557Z,0
2016-10-15T01:55:28.550Z,0
2016-10-15T01:56:38.832Z,0
2016-10-15T01:57:49.127Z,0
2016-10-15T01:58:59.110Z,0
2016-10-15T02:00:09.396Z,0
2016-10-15T02:01:19.677Z,0
2016-10-15T02:02:29.064Z,0
2016-10-15T02:03:39.031Z,0
2016-10-15T02:04:48.409Z,0
2016-10-15T02:05:58.711Z,0
2016-10-15T02:07:08.691Z,0
2016-10-15T02:08:18.988Z,0
2016-10-15T02:09:28.665Z,0
2016-10-15T02:10:38.947Z,0
2016-10-15T02:11:48.923Z,0
2016-10-15T02:12:58.890Z,0
2016-10-15T02:14:08.865Z,0
2016-10-15T02:15:18.862Z,0
2016-10-15T02:16:29.150Z,0
2016-10-15T02:17:39.132Z,0
2016-10-15T02:18:49.123Z,0
2016-10-15T02:19:59.098Z,0
2016-10-15T02:21:09.383Z,0
2016-10-15T02:22:19.663Z,0
2016-10-15T02:23:29.636Z,0
2016-10-15T02:24:39.927Z,0
2016-10-15T02:25:49.915Z,0
2016-10-15T02:27:00.220Z,0
2016-10-15T02:28:10.441Z,0
2016-10-15T02:29:20.740Z,0
2016-10-15T02:30:31.045Z,0
2016-10-15T02:31:41.331Z,0
2016-10-15T02:32:51.628Z,0
2016-10-15T02:34:01.946Z,0
2016-10-15T02:35:11.923Z,0
2016-10-15T02:36:22.206Z,0
2016-10-15T02:37:31.866Z,0
2016-10-15T02:38:42.151Z,0
2016-10-15T02:39:52.435Z,0
2016-10-15T02:41:02.717Z,0
2016-10-15T02:42:13.003Z,0
2016-10-15T02:43:23.000Z,0
2016-10-15T02:44:32.971Z,0
2016-10-15T02:45:42.969Z,0
2016-10-15T02:46:52.958Z,0
2016-10-15T02:48:03.235Z,0
2016-10-15T02:49:13.221Z,0
2016-10-15T02:50:23.214Z,0
2016-10-15T02:51:33.505Z,0
2016-10-15T02:52:43.792Z,0
2016-10-15T02:53:54.084Z,0
2016-10-15T02:55:04.391Z,0
2016-10-15T02:56:14.672Z,0
2016-10-15T02:57:24.999Z,0
2016-10-15T02:58:35.292Z,0
2016-10-15T02:59:45.607Z,0
2016-10-15T03:00:55.604Z,0
2016-10-15T03:33:04.075Z,0
2016-10-15T03:34:14.364Z,0
2016-10-15T03:35:24.661Z,0
2016-10-15T03:36:34.353Z,0
2016-10-15T03:37:44.330Z,0
2016-10-15T03:38:54.621Z,0
2016-10-15T03:40:04.594Z,0
2016-10-15T03:41:14.590Z,0
2016-10-15T03:42:24.862Z,0
2016-10-15T03:43:34.527Z,0
2016-10-15T03:44:44.195Z,0
2016-10-15T03:45:53.867Z,0
2016-10-15T03:47:03.849Z,0
2016-10-15T03:48:14.151Z,0
2016-10-15T03:49:24.436Z,0
2016-10-15T03:50:34.419Z,0
2016-10-15T03:51:44.391Z,0
2016-10-15T03:52:54.362Z,0
2016-10-15T03:54:04.037Z,0
2016-10-15T03:55:14.306Z,0
2016-10-15T03:56:24.282Z,0
2016-10-15T03:57:34.259Z,0
2016-10-15T03:58:44.232Z,0
2016-10-15T03:59:54.222Z,0
2016-10-15T04:01:04.200Z,0
2016-10-15T04:02:14.215Z,0
2016-10-15T04:03:24.192Z,0
2016-10-15T04:04:33.553Z,0
2016-10-15T04:05:43.835Z,0
2016-10-15T04:06:53.809Z,0
2016-10-15T04:08:03.799Z,0
2016-10-15T04:09:13.471Z,0
2016-10-15T04:10:23.455Z,0
2016-10-15T04:11:33.445Z,0
2016-10-15T04:12:43.722Z,0
2016-10-15T04:13:53.406Z,0
2016-10-15T04:15:03.392Z,0
2016-10-15T04:16:13.671Z,0
2016-10-15T04:17:23.962Z,0
2016-10-15T04:18:33.944Z,0
2016-10-15T04:19:43.916Z,0
2016-10-15T04:20:54.219Z,0
2016-10-15T04:22:04.185Z,0
2016-10-15T04:23:14.156Z,0
2016-10-15T04:24:24.145Z,0
2016-10-15T04:25:34.441Z,0
2016-10-15T04:26:44.736Z,0
2016-10-15T04:27:54.704Z,0
2016-10-15T04:29:04.688Z,0
2016-10-15T04:30:14.984Z,0
2016-10-15T04:31:24.650Z,0
2016-10-15T04:32:34.630Z,0
2016-10-15T04:33:44.907Z,0
2016-10-15T04:34:54.876Z,0
2016-10-15T04:36:04.537Z,0
2016-10-15T04:37:14.837Z,0
2016-10-15T04:38:25.119Z,0
2016-10-15T04:39:35.086Z,0
2016-10-15T04:40:45.078Z,0
2016-10-15T04:41:55.064Z,0
2016-10-15T04:43:05.036Z,0
2016-10-15T04:44:15.022Z,0
2016-10-15T04:45:24.948Z,4
2016-10-15T04:46:35.231Z,4
2016-10-15T04:47:45.195Z,4
2016-10-15T04:48:55.209Z,0
2016-10-15T04:50:05.197Z,4
2016-10-15T04:51:15.180Z,4
2016-10-15T04:52:25.469Z,8
2016-10-15T04:53:35.767Z,4
2016-10-15T04:54:45.473Z,8
2016-10-15T04:55:55.751Z,8
2016-10-15T04:57:06.058Z,8
2016-10-15T04:58:16.339Z,12
2016-10-15T04:59:26.321Z,12
2016-10-15T05:00:36.625Z,16
2016-10-15T05:01:46.605Z,20
2016-10-15T05:02:56.901Z,24
2016-10-15T05:04:06.568Z,24
2016-10-15T05:05:16.234Z,28
2016-10-15T05:06:26.245Z,36
2016-10-15T05:07:36.551Z,44
2016-10-15T05:08:46.839Z,56
2016-10-15T05:09:56.812Z,64
2016-10-15T05:11:06.482Z,80
2016-10-15T05:12:16.766Z,92
2016-10-15T05:13:27.062Z,104
2016-10-15T05:14:37.048Z,116
2016-10-15T05:15:47.334Z,136
2016-10-15T05:16:57.306Z,152
2016-10-15T05:18:07.204Z,172
2016-10-15T05:19:16.889Z,192
2016-10-15T05:20:26.886Z,220
2016-10-15T05:21:37.169Z,244
2016-10-15T05:22:47.189Z,272
2016-10-15T05:23:57.171Z,304
2016-10-15T05:25:07.483Z,332
2016-10-15T05:26:17.775Z,364
2016-10-15T05:27:27.456Z,404
2016-10-15T05:28:37.753Z,444
2016-10-15T05:29:48.079Z,480
2016-10-15T05:30:58.088Z,504
2016-10-15T05:32:08.069Z,532
2016-10-15T05:33:18.055Z,572
2016-10-15T05:34:27.728Z,616
2016-10-15T05:35:38.030Z,672
2016-10-15T05:36:48.319Z,740
2016-10-15T05:37:57.686Z,808
2016-10-15T05:39:07.974Z,880
2016-10-15T05:40:18.266Z,944
2016-10-15T05:41:28.272Z,988
2016-10-15T05:42:38.247Z,1008
2016-10-15T05:43:48.224Z,1004
2016-10-15T05:44:58.196Z,1000
2016-10-15T05:46:08.170Z,988
2016-10-15T05:47:18.134Z,972
2016-10-15T05:48:27.806Z,988
2016-10-15T05:49:37.797Z,1028
2016-10-15T05:50:48.091Z,1064
2016-10-15T05:51:58.056Z,1100
2016-10-15T05:53:07.727Z,1116
2016-10-15T05:54:18.014Z,1120
2016-10-15T05:55:28.306Z,1112
2016-10-15T05:56:38.298Z,1112
2016-10-15T05:57:48.599Z,1068
2016-10-15T05:58:58.575Z,1036
2016-10-15T06:00:08.572Z,1040
2016-10-15T06:01:18.246Z,1044
2016-10-15T06:02:28.547Z,1036
2016-10-15T06:03:38.213Z,1052
2016-10-15T06:04:47.879Z,1028
2016-10-15T06:05:58.198Z,1052
2016-10-15T06:07:08.502Z,1140
2016-10-15T06:08:18.504Z,1132
2016-10-15T06:09:28.201Z,1132
2016-10-15T06:10:38.502Z,1184
2016-10-15T06:11:48.494Z,1260
2016-10-15T06:12:58.790Z,1348
2016-10-15T06:14:09.074Z,1440
2016-10-15T06:15:19.045Z,1536
2016-10-15T06:16:29.336Z,1628
2016-10-15T06:17:39.323Z,1712
2016-10-15T06:18:49.296Z,1800
2016-10-15T06:19:59.601Z,1892
2016-10-15T06:21:09.264Z,1988
2016-10-15T06:22:19.554Z,2072
2016-10-15T06:23:29.216Z,2136
2016-10-15T06:24:39.504Z,2160
2016-10-15T06:25:49.794Z,2152
2016-10-15T06:26:59.762Z,2112
2016-10-15T06:28:09.744Z,2052
2016-10-15T06:29:20.269Z,2012
2016-10-15T06:30:30.562Z,1988
2016-10-15T06:31:40.248Z,1988
2016-10-15T06:32:50.527Z,1980
2016-10-15T06:34:00.812Z,1956
2016-10-15T06:35:10.803Z,1932
2016-10-15T06:36:20.481Z,1880
2016-10-15T06:37:30.483Z,1848
2016-10-15T06:38:40.465Z,1852
2016-10-15T06:39:50.750Z,1896
2016-10-15T06:41:00.756Z,1940
2016-10-15T06:42:11.060Z,2020
2016-10-15T06:43:21.331Z,2108
2016-10-15T06:44:31.331Z,2156
2016-10-15T06:45:41.625Z,2232
2016-10-15T06:46:51.301Z,2316
2016-10-15T06:48:01.591Z,2408
2016-10-15T06:49:11.864Z,2480
2016-10-15T06:50:22.165Z,2524
2016-10-15T06:51:32.141Z,2552
2016-10-15T06:52:42.434Z,2532
2016-10-15T06:53:52.727Z,2492
2016-10-15T06:55:03.022Z,2456
2016-10-15T06:56:12.691Z,2444
2016-10-15T06:57:22.991Z,2428
2016-10-15T06:58:32.952Z,2416
2016-10-15T06:59:43.254Z,2384
2016-10-15T07:00:53.531Z,2292
2016-10-15T07:02:03.842Z,2188
2016-10-15T07:03:13.830Z,2092
2016-10-15T07:04:23.824Z,2020
2016-10-15T07:05:33.819Z,1952
2016-10-15T07:06:43.185Z,1936
2016-10-15T07:07:53.471Z,1936
2016-10-15T07:09:03.458Z,1968
2016-10-15T07:10:13.149Z,2064
2016-10-15T07:11:23.471Z,2136
2016-10-15T07:12:33.469Z,2212
2016-10-15T07:13:43.462Z,2280
2016-10-15T07:14:53.455Z,2328
2016-10-15T07:16:03.783Z,2340
2016-10-15T07:17:13.758Z,2304
2016-10-15T07:18:23.759Z,2304
2016-10-15T07:19:33.765Z,2396
2016-10-15T07:20:43.759Z,2384
2016-10-15T07:21:54.051Z,2384
2016-10-15T07:23:04.363Z,2384
2016-10-15T07:24:14.648Z,2328
2016-10-15T07:25:24.951Z,2440
2016-10-15T07:26:34.943Z,2584
2016-10-15T07:27:44.959Z,2552
2016-10-15T07:28:55.261Z,2480
2016-10-15T07:30:05.581Z,2416
2016-10-15T07:31:15.886Z,2352
2016-10-15T07:32:26.189Z,2352
2016-10-15T07:33:36.183Z,2392
2016-10-15T07:34:46.505Z,2380
2016-10-15T07:35:56.503Z,2396
2016-10-15T07:37:06.193Z,2488
2016-10-15T07:38:16.475Z,2460
2016-10-15T07:39:26.777Z,2448
2016-10-15T07:40:37.095Z,2456
2016-10-15T07:41:46.785Z,2516
2016-10-15T07:42:56.758Z,2544
2016-10-15T07:44:06.947Z,2776
2016-10-15T07:45:17.246Z,3096
2016-10-15T07:46:26.917Z,3596
2016-10-15T07:47:37.204Z,4100
2016-10-15T07:48:47.493Z,4264
2016-10-15T07:49:57.789Z,4420
2016-10-15T07:51:07.489Z,4780
2016-10-15T07:52:16.845Z,4992
2016-10-15T07:53:27.147Z,5272
2016-10-15T07:54:36.849Z,5244
2016-10-15T07:55:46.865Z,5448
2016-10-15T07:56:56.878Z,5396
2016-10-15T07:58:06.552Z,5428
2016-10-15T07:59:16.863Z,5416
2016-10-15T08:00:27.161Z,5424
2016-10-15T08:01:37.463Z,5420
2016-10-15T08:02:47.741Z,5240
2016-10-15T08:03:58.049Z,5424
2016-10-15T08:05:07.729Z,5404
2016-10-15T08:06:17.101Z,5488
2016-10-15T08:07:27.093Z,5664
2016-10-15T08:08:37.416Z,5672
2016-10-15T08:09:47.466Z,5788
2016-10-15T08:10:56.544Z,5744
2016-10-15T08:12:06.566Z,5788
2016-10-15T08:13:16.879Z,5812
2016-10-15T08:14:27.183Z,5780
2016-10-15T08:15:37.486Z,5764
2016-10-15T08:16:47.484Z,5656
2016-10-15T08:17:57.804Z,5508
2016-10-15T08:19:08.107Z,5696
2016-10-15T08:20:18.094Z,6300
2016-10-15T08:21:28.395Z,6364
2016-10-15T08:22:38.712Z,6400
2016-10-15T08:23:48.706Z,6564
2016-10-15T08:24:59.040Z,6472
2016-10-15T08:26:09.345Z,6500
2016-10-15T08:27:19.673Z,6572
2016-10-15T08:28:29.999Z,6520
2016-10-15T08:29:40.321Z,6484
2016-10-15T08:30:50.653Z,6436
2016-10-15T08:32:00.643Z,6392
2016-10-15T08:33:10.313Z,6572
2016-10-15T08:34:19.700Z,6400
2016-10-15T08:35:30.022Z,6208
2016-10-15T08:36:39.716Z,5972
2016-10-15T08:37:49.392Z,5988
2016-10-15T08:38:59.678Z,5876
2016-10-15T08:40:09.659Z,4808
2016-10-15T08:41:19.942Z,6300
2016-10-15T08:42:30.241Z,6276
2016-10-15T08:43:40.540Z,5940
2016-10-15T08:44:50.843Z,6132
2016-10-15T08:46:00.209Z,6348
2016-10-15T08:47:10.524Z,5220
2016-10-15T08:48:20.521Z,6672
2016-10-15T08:49:30.502Z,6796
2016-10-15T08:50:40.799Z,6236
2016-10-15T08:51:50.787Z,5792
2016-10-15T08:53:01.107Z,5212
2016-10-15T08:54:11.188Z,4752
2016-10-15T08:55:21.486Z,3900
2016-10-15T08:56:32.023Z,4428
2016-10-15T08:57:42.323Z,3876
2016-10-15T08:58:52.317Z,3744
2016-10-15T09:00:02.632Z,3872
2016-10-15T09:01:12.937Z,3764
2016-10-15T09:02:22.936Z,5552
2016-10-15T09:03:32.620Z,7084
2016-10-15T09:04:42.929Z,7716
2016-10-15T09:05:52.631Z,7572
2016-10-15T09:07:02.952Z,7408
2016-10-15T09:08:12.936Z,7516
2016-10-15T09:09:22.921Z,7960
2016-10-15T09:10:32.917Z,7880
2016-10-15T09:11:43.230Z,7744
2016-10-15T09:12:52.908Z,7564
2016-10-15T09:14:02.582Z,7748
2016-10-15T09:15:12.900Z,5428
2016-10-15T09:16:23.452Z,4976
2016-10-15T09:17:33.988Z,6964
2016-10-15T09:18:44.281Z,8216
2016-10-15T09:19:54.797Z,8356
2016-10-15T09:21:05.088Z,7548
2016-10-15T09:22:15.081Z,8076
2016-10-15T09:23:24.783Z,8348
2016-10-15T09:24:35.072Z,8404
2016-10-15T09:25:45.375Z,8380
2016-10-15T09:26:55.687Z,8352
2016-10-15T09:28:05.697Z,8244
2016-10-15T09:29:15.695Z,8232
2016-10-15T09:30:25.376Z,8232
2016-10-15T09:31:35.662Z,8172
2016-10-15T09:32:45.491Z,8360
2016-10-15T09:33:55.476Z,8304
2016-10-15T09:35:05.163Z,8152
2016-10-15T09:36:14.863Z,8212
2016-10-15T09:37:25.167Z,8268
2016-10-15T09:38:34.857Z,8200
2016-10-15T09:39:44.881Z,8316
2016-10-15T09:40:55.172Z,8204
2016-10-15T09:42:05.459Z,8192
2016-10-15T09:43:15.452Z,8192
2016-10-15T09:44:25.121Z,8276
2016-10-15T09:45:35.418Z,8208
2016-10-15T09:46:45.710Z,8204
2016-10-15T09:47:55.702Z,8188
2016-10-15T09:49:06.013Z,8220
2016-10-15T09:50:15.986Z,8172
2016-10-15T09:51:25.977Z,8104
2016-10-15T09:52:36.280Z,8084
2016-10-15T09:53:46.279Z,8196
2016-10-15T09:54:56.592Z,8180
2016-10-15T09:56:06.889Z,8024
2016-10-15T09:57:16.910Z,8140
2016-10-15T09:58:26.592Z,8188
2016-10-15T09:59:36.904Z,8176
2016-10-15T10:00:46.895Z,8256
2016-10-15T10:01:56.892Z,8324
2016-10-15T10:03:07.196Z,8316
2016-10-15T10:04:17.205Z,8328
2016-10-15T10:05:27.527Z,8328
2016-10-15T10:06:37.509Z,8216
2016-10-15T10:07:47.492Z,8364
2016-10-15T10:08:57.173Z,8392
2016-10-15T10:10:07.472Z,8420
2016-10-15T10:11:17.716Z,8436
2016-10-15T10:12:27.722Z,8460
2016-10-15T10:13:38.043Z,8476
2016-10-15T10:14:48.345Z,8432
2016-10-15T10:15:58.327Z,8360
2016-10-15T10:17:08.320Z,8508
2016-10-15T10:18:18.622Z,8432
2016-10-15T10:19:27.983Z,8556
2016-10-15T10:20:37.654Z,8708
2016-10-15T10:21:47.965Z,8644
2016-10-15T10:22:58.278Z,8600
2016-10-15T10:24:08.564Z,8700
2016-10-15T10:25:18.547Z,8796
2016-10-15T10:26:28.558Z,8584
2016-10-15T10:27:38.845Z,8460
2016-10-15T10:28:48.537Z,7540
2016-10-15T10:29:58.208Z,8184
2016-10-15T10:31:08.209Z,8232
2016-10-15T10:32:18.201Z,8272
2016-10-15T10:33:27.588Z,8624
2016-10-15T10:34:37.880Z,8080
2016-10-15T10:35:47.880Z,8612
2016-10-15T10:36:57.869Z,8812
2016-10-15T10:38:08.161Z,8796
2016-10-15T10:39:18.465Z,8776
2016-10-15T10:40:28.492Z,8788
2016-10-15T10:41:38.474Z,8788
2016-10-15T10:42:48.458Z,8828
2016-10-15T10:43:58.766Z,8860
2016-10-15T10:45:09.072Z,8924
2016-10-15T10:46:19.383Z,8884
2016-10-15T10:47:29.393Z,8952
2016-10-15T10:48:39.376Z,8992
2016-10-15T10:49:49.375Z,8864
2016-10-15T10:50:59.357Z,9144
2016-10-15T10:52:09.349Z,4848
2016-10-15T10:53:19.671Z,8400
2016-10-15T10:54:29.653Z,6444
2016-10-15T10:55:39.679Z,5404
2016-10-15T10:56:49.680Z,4696
2016-10-15T10:57:59.682Z,4532
2016-10-15T10:59:10.009Z,6100
2016-10-15T11:00:20.312Z,4628
2016-10-15T11:01:30.019Z,3704
2016-10-15T11:02:40.331Z,3716
2016-10-15T11:03:50.622Z,3460
2016-10-15T11:05:00.277Z,3540
2016-10-15T11:06:10.295Z,3996
2016-10-15T11:07:20.595Z,8252
2016-10-15T11:08:30.267Z,9548
2016-10-15T11:09:40.554Z,8592
2016-10-15T11:10:50.854Z,5236
2016-10-15T11:12:00.846Z,9136
2016-10-15T11:13:11.151Z,9692
2016-10-15T11:14:21.479Z,9728
2016-10-15T11:15:31.789Z,4292
2016-10-15T11:16:42.088Z,4416
2016-10-15T11:17:52.084Z,3708
2016-10-15T11:19:01.787Z,4980
2016-10-15T11:20:11.773Z,4716
2016-10-15T11:21:22.060Z,4908
2016-10-15T11:22:32.374Z,3920
2016-10-15T11:23:42.365Z,3376
2016-10-15T11:24:52.040Z,4656
2016-10-15T11:26:02.040Z,3376
2016-10-15T11:27:12.040Z,3508
2016-10-15T11:28:22.340Z,8824
2016-10-15T11:29:32.646Z,9920
2016-10-15T11:30:42.663Z,4648
2016-10-15T11:31:52.962Z,4004
2016-10-15T11:33:02.947Z,6488
2016-10-15T11:34:13.239Z,9700
2016-10-15T11:35:23.526Z,4884
2016-10-15T11:36:33.826Z,4188
2016-10-15T11:37:43.826Z,3212
2016-10-15T11:38:54.126Z,3188
2016-10-15T11:40:04.422Z,3856
2016-10-15T11:41:14.714Z,4224
2016-10-15T11:42:24.708Z,8412
2016-10-15T11:43:34.706Z,9344
2016-10-15T11:44:44.383Z,9148
2016-10-15T11:45:54.674Z,9112
2016-10-15T11:47:04.666Z,6812
2016-10-15T11:48:14.339Z,9236
2016-10-15T11:49:24.649Z,9208
2016-10-15T11:50:34.962Z,9164
2016-10-15T11:51:45.268Z,9148
2016-10-15T11:52:55.259Z,9220
2016-10-15T11:54:05.557Z,9280
2016-10-15T11:55:15.228Z,9256
2016-10-15T11:56:25.217Z,9300
2016-10-15T11:57:35.201Z,9224
2016-10-15T11:58:45.194Z,9240
2016-10-15T11:59:55.505Z,9344
2016-10-15T12:01:05.521Z,9368
2016-10-15T12:02:15.808Z,9336
2016-10-15T12:03:25.496Z,9344
2016-10-15T12:04:35.791Z,9324
2016-10-15T12:05:45.470Z,9400
2016-10-15T12:06:55.766Z,9356
2016-10-15T12:08:05.767Z,9312
2016-10-15T12:09:16.067Z,9304
2016-10-15T12:10:26.361Z,9304
2016-10-15T12:11:36.353Z,9304
2016-10-15T12:12:46.352Z,9272
2016-10-15T12:13:56.656Z,9252
2016-10-15T12:15:06.352Z,9212
2016-10-15T12:16:16.883Z,9224
2016-10-15T12:17:27.198Z,9216
2016-10-15T12:18:37.194Z,9132
2016-10-15T12:19:47.178Z,9164
2016-10-15T12:20:57.188Z,9148
2016-10-15T12:22:07.501Z,9080
2016-10-15T12:23:17.537Z,8968
2016-10-15T12:24:27.872Z,9008
2016-10-15T12:25:37.881Z,8996
2016-10-15T12:26:47.564Z,8928
2016-10-15T12:27:57.575Z,8884
2016-10-15T12:29:07.572Z,8872
2016-10-15T12:30:17.870Z,8804
2016-10-15T12:31:28.161Z,8728
2016-10-15T12:32:38.152Z,8628
2016-10-15T12:33:48.516Z,8648
2016-10-15T12:34:58.555Z,8636
2016-10-15T12:36:08.855Z,8552
2016-10-15T12:37:19.168Z,8500
2016-10-15T12:38:29.471Z,8416
2016-10-15T12:39:39.789Z,7892
2016-10-15T12:40:50.100Z,7584
2016-10-15T12:41:59.798Z,6592
2016-10-15T12:43:10.118Z,6876
2016-10-15T12:44:20.411Z,8036
2016-10-15T12:45:30.734Z,8060
2016-10-15T12:46:40.758Z,7960
2016-10-15T12:47:51.057Z,7896
2016-10-15T12:49:01.054Z,7796
2016-10-15T12:50:11.343Z,7720
2016-10-15T12:51:21.679Z,7680
2016-10-15T12:52:32.014Z,7768
2016-10-15T12:53:42.325Z,7732
2016-10-15T12:54:52.342Z,7656
2016-10-15T12:56:02.354Z,7596
2016-10-15T12:57:12.368Z,7552
2016-10-15T12:58:22.675Z,7540
2016-10-15T12:59:33.028Z,7496
2016-10-15T13:00:43.328Z,7440
2016-10-15T13:01:53.327Z,7476
2016-10-15T13:03:03.634Z,7428
2016-10-15T13:04:13.951Z,7424
2016-10-15T13:05:24.265Z,7392
2016-10-15T13:06:34.587Z,7388
2016-10-15T13:07:44.638Z,7388
2016-10-15T13:08:54.955Z,7328
2016-10-15T13:10:04.962Z,7280
2016-10-15T13:11:14.972Z,7248
2016-10-15T13:12:24.648Z,7236
2016-10-15T13:13:34.645Z,7152
2016-10-15T13:14:44.642Z,7080
2016-10-15T13:15:54.938Z,7036
2016-10-15T13:17:05.215Z,7024
2016-10-15T13:18:15.535Z,6960
2016-10-15T13:19:25.839Z,6956
2016-10-15T13:20:36.131Z,6904
2016-10-15T13:21:46.441Z,6880
2016-10-15T13:22:56.133Z,6756
2016-10-15T13:24:06.451Z,6700
2016-10-15T13:25:16.769Z,6708
2016-10-15T13:26:27.093Z,6656
2016-10-15T13:27:37.394Z,6512
2016-10-15T13:28:47.723Z,6400
2016-10-15T13:29:58.035Z,6380
2016-10-15T13:31:08.343Z,6424
2016-10-15T13:32:18.638Z,6412
2016-10-15T13:33:28.318Z,6400
2016-10-15T13:34:38.311Z,6296
2016-10-15T13:35:48.303Z,6348
2016-10-15T13:36:58.595Z,6328
2016-10-15T13:38:08.883Z,6288
2016-10-15T13:39:18.862Z,6280
2016-10-15T13:40:29.155Z,6224
2016-10-15T13:41:39.450Z,6196
2016-10-15T13:42:49.748Z,6116
2016-10-15T13:44:00.098Z,6032
2016-10-15T13:45:09.795Z,5900
2016-10-15T13:46:19.787Z,5712
2016-10-15T13:47:30.073Z,5320
2016-10-15T13:48:40.364Z,4940
2016-10-15T13:49:50.678Z,4596
2016-10-15T13:51:00.959Z,4228
2016-10-15T13:52:10.960Z,3796
2016-10-15T13:53:20.951Z,3180
2016-10-15T13:54:31.253Z,2552
2016-10-15T13:55:40.936Z,2292
2016-10-15T13:56:50.917Z,2068
2016-10-15T13:58:01.247Z,1920
2016-10-15T13:59:10.605Z,1812
2016-10-15T14:00:20.894Z,1792
2016-10-15T14:01:30.900Z,1808
2016-10-15T14:02:41.203Z,1772
2016-10-15T14:03:50.882Z,1736
2016-10-15T14:05:00.864Z,1668
2016-10-15T14:06:10.857Z,1616
2016-10-15T14:07:21.164Z,1556
2016-10-15T14:08:31.464Z,1520
2016-10-15T14:09:41.755Z,1504
2016-10-15T14:10:52.049Z,1484
2016-10-15T14:12:02.336Z,1480
2016-10-15T14:13:12.626Z,1480
2016-10-15T14:14:22.910Z,1472
2016-10-15T14:15:32.896Z,1476
2016-10-15T14:16:42.906Z,1492
2016-10-15T14:17:52.903Z,1528
2016-10-15T14:19:03.197Z,1596
2016-10-15T14:20:12.570Z,1700
2016-10-15T14:21:22.582Z,1856
2016-10-15T14:22:32.594Z,1920
2016-10-15T14:23:42.267Z,1936
2016-10-15T14:24:52.247Z,1936
2016-10-15T14:26:02.236Z,1964
2016-10-15T14:27:11.912Z,2024
2016-10-15T14:28:21.897Z,2088
2016-10-15T14:29:32.340Z,2096
2016-10-15T14:30:42.633Z,2056
2016-10-15T14:31:52.623Z,1976
2016-10-15T14:33:02.919Z,1868
2016-10-15T14:34:13.224Z,1744
2016-10-15T14:35:22.881Z,1612
2016-10-15T14:36:33.200Z,1500
2016-10-15T14:37:43.488Z,1396
2016-10-15T14:38:53.479Z,1308
2016-10-15T14:40:03.160Z,1236
2016-10-15T14:41:13.085Z,1180
2016-10-15T14:42:23.367Z,1144
2016-10-15T14:43:33.365Z,1116
2016-10-15T14:44:43.677Z,1096
2016-10-15T14:45:53.988Z,1072
2016-10-15T14:47:04.300Z,1060
2016-10-15T14:48:14.598Z,1048
2016-10-15T14:49:24.582Z,1040
2016-10-15T14:50:34.565Z,1032
2016-10-15T14:51:44.872Z,1036
2016-10-15T14:52:54.875Z,1040
2016-10-15T14:54:05.165Z,1052
2016-10-15T14:55:15.173Z,1068
2016-10-15T14:56:25.156Z,1084
2016-10-15T14:57:35.461Z,1112
2016-10-15T14:58:45.763Z,1136
2016-10-15T14:59:56.065Z,1164
2016-10-15T15:01:06.391Z,1196
2016-10-15T15:02:16.373Z,1220
2016-10-15T15:03:26.694Z,1248
2016-10-15T15:04:36.996Z,1268
2016-10-15T15:05:47.002Z,1280
2016-10-15T15:06:56.366Z,1284
2016-10-15T15:08:06.681Z,1284
2016-10-15T15:09:17.002Z,1272
2016-10-15T15:10:26.990Z,1256
2016-10-15T15:11:36.972Z,1232
2016-10-15T15:12:46.969Z,1200
2016-10-15T15:13:56.965Z,1168
2016-10-15T15:15:06.960Z,1132
2016-10-15T15:16:17.248Z,1088
2016-10-15T15:17:27.539Z,1048
2016-10-15T15:18:37.528Z,1012
2016-10-15T15:19:47.808Z,976
2016-10-15T15:20:58.106Z,944
2016-10-15T15:22:08.413Z,916
2016-10-15T15:23:18.399Z,880
2016-10-15T15:24:28.416Z,848
2016-10-15T15:25:38.726Z,820
2016-10-15T15:26:48.712Z,796
2016-10-15T15:27:58.687Z,780
2016-10-15T15:29:08.708Z,772
2016-10-15T15:30:19.004Z,776
2016-10-15T15:31:28.985Z,792
2016-10-15T15:32:39.002Z,816
2016-10-15T15:33:49.003Z,820
2016-10-15T15:34:59.012Z,796
2016-10-15T15:36:09.307Z,764
2016-10-15T15:37:19.278Z,704
2016-10-15T15:38:29.270Z,648
2016-10-15T15:39:39.562Z,612
2016-10-15T15:40:49.865Z,584
2016-10-15T15:42:00.170Z,576
2016-10-15T15:43:09.853Z,564
2016-10-15T15:44:20.149Z,548
2016-10-15T15:45:30.444Z,528
2016-10-15T15:46:40.741Z,504
2016-10-15T15:47:50.419Z,480
2016-10-15T15:49:00.724Z,456
2016-10-15T15:50:11.028Z,428
2016-10-15T15:51:21.044Z,392
2016-10-15T15:52:30.740Z,368
2016-10-15T15:53:41.040Z,340
2016-10-15T15:54:51.342Z,320
2016-10-15T15:56:01.663Z,304
2016-10-15T15:57:11.333Z,296
2016-10-15T15:58:21.645Z,280
2016-10-15T15:59:31.949Z,260
2016-10-15T16:00:42.233Z,228
2016-10-15T16:01:52.562Z,196
2016-10-15T16:03:02.849Z,168
2016-10-15T16:04:12.816Z,156
2016-10-15T16:05:23.112Z,136
2016-10-15T16:06:33.103Z,116
2016-10-15T16:07:43.103Z,96
2016-10-15T16:08:53.408Z,84
2016-10-15T16:10:03.404Z,76
2016-10-15T16:11:13.705Z,60
2016-10-15T16:12:23.997Z,48
2016-10-15T16:13:33.653Z,40
2016-10-15T16:14:43.966Z,28
2016-10-15T16:15:54.288Z,28
2016-10-15T16:17:04.639Z,20
2016-10-15T16:18:14.851Z,16
2016-10-15T16:19:24.532Z,12
2016-10-15T16:20:34.519Z,12
2016-10-15T16:21:44.211Z,8
2016-10-15T16:22:54.507Z,8
2016-10-15T16:24:04.799Z,8
2016-10-15T16:25:14.791Z,8
2016-10-15T16:26:25.092Z,4
2016-10-15T16:27:35.396Z,4
2016-10-15T16:28:45.700Z,0
2016-10-15T16:29:55.993Z,4
2016-10-15T16:31:06.293Z,4
2016-10-15T16:32:16.616Z,0
2016-10-15T16:33:26.934Z,0
2016-10-15T16:34:37.229Z,4
2016-10-15T16:35:46.916Z,4
2016-10-15T16:36:56.933Z,0